createdAt,value
2023-03-27T00:01:27.130Z,101194.60
2023-03-27T00:03:55.608Z,101196.60
2023-03-27T00:06:24.995Z,101198.60
2023-03-27T00:08:53.667Z,101198.20
2023-03-27T00:11:24.910Z,101199.40
2023-03-27T00:13:55.914Z,101205.40
2023-03-27T00:16:26.761Z,101214.00
2023-03-27T00:18:55.899Z,101212.60
2023-03-27T00:21:24.500Z,101215.80
2023-03-27T00:23:52.728Z,101224.40
2023-03-27T00:26:22.117Z,101228.80
2023-03-27T00:28:50.613Z,101231.60
2023-03-27T00:31:18.607Z,101238.00
2023-03-27T00:33:46.457Z,101235.60
2023-03-27T00:36:15.273Z,101237.40
2023-03-27T00:38:43.845Z,101236.80
2023-03-27T00:41:12.719Z,101235.80
2023-03-27T00:43:44.069Z,101236.80
2023-03-27T00:46:15.414Z,101247.20
2023-03-27T00:48:50.140Z,101250.60
2023-03-27T00:51:22.300Z,101251.80
2023-03-27T00:53:52.875Z,101260.60
2023-03-27T00:56:21.802Z,101266.20
2023-03-27T00:59:00.249Z,101273.60
2023-03-27T01:01:31.200Z,101283.40
2023-03-27T01:04:07.468Z,101285.80
2023-03-27T01:06:36.858Z,101291.20
2023-03-27T01:09:04.812Z,101293.00
2023-03-27T01:12:06.824Z,101291.20
2023-03-27T01:14:50.736Z,101302.60
2023-03-27T01:17:37.260Z,101288.40
2023-03-27T01:20:47.048Z,101285.00
2023-03-27T01:23:59.717Z,101287.40
2023-03-27T01:27:00.478Z,101292.20
2023-03-27T01:29:55.279Z,101279.60
2023-03-27T01:33:05.038Z,101281.40
2023-03-27T01:35:54.933Z,101295.80
2023-03-27T01:38:37.997Z,101304.20
2023-03-27T01:41:31.882Z,101313.40
2023-03-27T01:44:19.788Z,101318.80
2023-03-27T01:47:02.161Z,101313.00
2023-03-27T01:49:44.636Z,101318.20
2023-03-27T01:52:20.469Z,101321.40
2023-03-27T01:54:55.738Z,101318.40
2023-03-27T01:57:34.299Z,101317.80
2023-03-27T02:00:19.445Z,101309.40
2023-03-27T02:03:02.415Z,101301.40
2023-03-27T02:05:38.186Z,101306.60
2023-03-27T02:08:36.008Z,101310.40
2023-03-27T02:11:13.165Z,101326.00
2023-03-27T02:13:49.068Z,101333.20
2023-03-27T02:16:24.899Z,101339.60
2023-03-27T02:19:01.776Z,101340.00
2023-03-27T02:21:31.450Z,101343.60
2023-03-27T02:24:02.545Z,101339.80
2023-03-27T02:26:30.824Z,101337.80
2023-03-27T02:29:51.974Z,101337.60
2023-03-27T02:32:44.267Z,101332.00
2023-03-27T02:35:53.567Z,101345.60
2023-03-27T02:38:41.279Z,101352.20
2023-03-27T02:41:28.799Z,101354.40
2023-03-27T02:44:46.845Z,101361.20
2023-03-27T02:47:25.723Z,101369.60
2023-03-27T02:50:01.788Z,101368.00
2023-03-27T02:52:41.370Z,101368.40
2023-03-27T02:55:19.080Z,101383.60
2023-03-27T02:57:53.220Z,101382.40
2023-03-27T03:00:39.745Z,101381.40
2023-03-27T03:03:44.454Z,101386.60
2023-03-27T03:06:44.241Z,101395.40
2023-03-27T03:09:14.900Z,101398.20
2023-03-27T03:11:52.249Z,101401.40
2023-03-27T03:14:26.791Z,101403.20
2023-03-27T03:16:54.642Z,101401.40
2023-03-27T03:19:24.069Z,101407.60
2023-03-27T03:21:52.149Z,101408.20
2023-03-27T03:24:22.360Z,101411.00
2023-03-27T03:26:50.351Z,101415.40
2023-03-27T03:29:19.333Z,101411.00
2023-03-27T03:32:00.676Z,101423.80
2023-03-27T03:34:30.462Z,101419.80
2023-03-27T03:36:58.244Z,101419.40
2023-03-27T03:39:30.140Z,101425.40
2023-03-27T03:41:58.279Z,101425.20
2023-03-27T03:44:26.496Z,101434.60
2023-03-27T03:46:54.482Z,101437.00
2023-03-27T03:49:22.437Z,101440.60
2023-03-27T03:52:03.600Z,101437.20
2023-03-27T03:54:33.007Z,101434.40
2023-03-27T03:57:01.098Z,101445.80
2023-03-27T03:59:30.071Z,101447.60
2023-03-27T04:02:28.379Z,101446.00
2023-03-27T04:05:01.321Z,101451.40
2023-03-27T04:07:40.078Z,101450.60
2023-03-27T04:10:21.570Z,101454.60
2023-03-27T04:12:51.264Z,101457.20
2023-03-27T04:15:40.845Z,101458.20
2023-03-27T04:18:33.163Z,101462.60
2023-03-27T04:21:03.790Z,101464.20
2023-03-27T04:23:33.741Z,101471.60
2023-03-27T04:26:03.342Z,101476.80
2023-03-27T04:28:51.737Z,101482.20
2023-03-27T04:31:39.281Z,101481.40
2023-03-27T04:34:33.101Z,101485.00
2023-03-27T04:37:07.840Z,101490.00
2023-03-27T04:39:42.841Z,101486.60
2023-03-27T04:42:11.228Z,101483.60
2023-03-27T04:44:40.306Z,101486.60
2023-03-27T04:47:09.163Z,101489.40
2023-03-27T04:49:43.029Z,101492.20
2023-03-27T04:52:29.704Z,101491.60
2023-03-27T04:54:58.843Z,101493.80
2023-03-27T04:57:32.005Z,101498.60
2023-03-27T05:00:13.931Z,101502.20
2023-03-27T05:03:02.134Z,101499.00
2023-03-27T05:05:50.912Z,101498.80
2023-03-27T05:08:19.909Z,101501.20
2023-03-27T05:10:47.853Z,101497.60
2023-03-27T05:13:15.888Z,101491.20
2023-03-27T05:15:43.975Z,101500.40
2023-03-27T05:18:21.459Z,101504.00
2023-03-27T05:20:51.368Z,101502.40
2023-03-27T05:23:19.351Z,101507.20
2023-03-27T05:25:59.653Z,101504.00
2023-03-27T05:28:34.951Z,101506.80
2023-03-27T05:31:02.810Z,101512.60
2023-03-27T05:33:38.066Z,101519.20
2023-03-27T05:36:09.973Z,101520.00
2023-03-27T05:38:39.561Z,101523.40
2023-03-27T05:41:19.349Z,101527.20
2023-03-27T05:43:51.225Z,101527.40
2023-03-27T05:46:21.354Z,101523.20
2023-03-27T05:48:54.151Z,101527.80
2023-03-27T05:51:22.402Z,101533.20
2023-03-27T05:53:50.610Z,101529.20
2023-03-27T05:56:23.662Z,101541.00
2023-03-27T05:58:57.104Z,101546.60
2023-03-27T06:01:26.079Z,101549.80
2023-03-27T06:03:56.325Z,101554.60
2023-03-27T06:06:33.007Z,101552.20
2023-03-27T06:09:01.531Z,101551.00
2023-03-27T06:11:29.706Z,101553.20
2023-03-27T06:13:58.765Z,101552.00
2023-03-27T06:16:38.048Z,101560.20
2023-03-27T06:19:28.585Z,101563.20
2023-03-27T06:21:56.457Z,101568.00
2023-03-27T06:24:24.473Z,101565.80
2023-03-27T06:26:52.932Z,101571.40
2023-03-27T06:29:21.323Z,101577.40
2023-03-27T06:31:51.738Z,101581.80
2023-03-27T06:34:29.593Z,101579.20
2023-03-27T06:37:04.429Z,101583.60
2023-03-27T06:39:37.540Z,101589.20
2023-03-27T06:42:05.694Z,101589.40
2023-03-27T06:44:45.443Z,101599.60
2023-03-27T06:47:20.016Z,101601.00
2023-03-27T06:50:07.902Z,101605.00
2023-03-27T06:52:37.149Z,101608.40
2023-03-27T06:55:28.478Z,101616.60
2023-03-27T06:57:59.776Z,101621.00
2023-03-27T07:00:35.795Z,101614.20
2023-03-27T07:03:16.314Z,101619.60
2023-03-27T07:06:03.290Z,101615.20
2023-03-27T07:08:41.447Z,101615.60
2023-03-27T07:11:11.975Z,101615.00
2023-03-27T07:13:45.097Z,101620.00
2023-03-27T07:16:21.399Z,101621.60
2023-03-27T07:18:49.447Z,101615.80
2023-03-27T07:21:17.342Z,101609.40
2023-03-27T07:23:46.405Z,101618.00
2023-03-27T07:26:18.008Z,101611.60
2023-03-27T07:29:12.392Z,101623.00
2023-03-27T07:31:55.359Z,101618.80
2023-03-27T07:34:30.515Z,101616.20
2023-03-27T07:37:22.824Z,101618.60
2023-03-27T07:40:13.934Z,101626.80
2023-03-27T07:42:45.422Z,101633.60
2023-03-27T07:45:22.278Z,101638.40
2023-03-27T07:47:52.165Z,101638.60
2023-03-27T07:50:21.775Z,101642.40
2023-03-27T07:52:51.129Z,101643.80
2023-03-27T07:55:19.817Z,101642.00
2023-03-27T07:58:02.219Z,101642.00
2023-03-27T08:00:35.247Z,101644.60
2023-03-27T08:03:17.667Z,101655.20
2023-03-27T08:05:58.368Z,101654.20
2023-03-27T08:08:28.708Z,101660.20
2023-03-27T08:10:59.768Z,101659.80
2023-03-27T08:13:31.472Z,101659.80
2023-03-27T08:16:14.486Z,101656.60
2023-03-27T08:18:43.767Z,101660.40
2023-03-27T08:21:12.639Z,101667.00
2023-03-27T08:23:41.146Z,101661.60
2023-03-27T08:26:09.155Z,101664.80
2023-03-27T08:28:43.069Z,101667.20
2023-03-27T08:31:15.480Z,101669.20
2023-03-27T08:33:44.347Z,101671.60
2023-03-27T08:36:16.174Z,101667.80
2023-03-27T08:38:45.178Z,101672.80
2023-03-27T08:41:33.846Z,101673.60
2023-03-27T08:44:20.009Z,101667.80
2023-03-27T08:47:00.220Z,101670.00
2023-03-27T08:49:41.517Z,101667.60
2023-03-27T08:52:34.112Z,101676.80
2023-03-27T08:55:37.386Z,101672.20
2023-03-27T08:58:26.538Z,101670.00
2023-03-27T09:01:49.189Z,101670.60
2023-03-27T09:04:31.208Z,101672.20
2023-03-27T09:07:34.266Z,101670.60
2023-03-27T09:11:09.968Z,101670.00
2023-03-27T09:13:51.250Z,101676.00
2023-03-27T09:16:35.836Z,101678.60
2023-03-27T09:19:29.839Z,101688.80
2023-03-27T09:22:12.048Z,101691.80
2023-03-27T09:24:56.490Z,101691.40
2023-03-27T09:27:40.750Z,101692.60
2023-03-27T09:30:44.043Z,101692.40
2023-03-27T09:33:17.888Z,101688.60
2023-03-27T09:35:46.609Z,101694.80
2023-03-27T09:38:37.154Z,101695.00
2023-03-27T09:41:14.531Z,101691.60
2023-03-27T09:44:21.020Z,101697.20
2023-03-27T09:46:59.251Z,101701.60
2023-03-27T09:49:27.921Z,101707.00
2023-03-27T09:51:59.496Z,101708.60
2023-03-27T09:54:56.726Z,101701.80
2023-03-27T09:57:37.364Z,101698.40
2023-03-27T10:00:29.180Z,101700.00
2023-03-27T10:03:08.396Z,101701.80
2023-03-27T10:05:39.978Z,101701.80
2023-03-27T10:09:02.119Z,101700.20
2023-03-27T10:11:36.385Z,101702.20
2023-03-27T10:14:21.343Z,101706.40
2023-03-27T10:16:50.084Z,101706.20
2023-03-27T10:19:36.307Z,101705.60
2023-03-27T10:22:35.873Z,101703.60
2023-03-27T10:25:16.622Z,101701.60
2023-03-27T10:28:36.178Z,101694.00
2023-03-27T10:31:36.436Z,101695.20
2023-03-27T10:34:43.407Z,101691.40
2023-03-27T10:37:34.422Z,101687.60
2023-03-27T10:40:31.029Z,101692.40
2023-03-27T10:43:40.473Z,101695.80
2023-03-27T10:46:14.890Z,101695.80
2023-03-27T10:49:41.195Z,101696.80
2023-03-27T10:52:32.149Z,101694.40
2023-03-27T10:55:44.463Z,101698.20
2023-03-27T10:58:35.270Z,101698.80
2023-03-27T11:01:34.722Z,101695.60
2023-03-27T11:04:19.722Z,101695.40
2023-03-27T11:07:00.143Z,101697.00
2023-03-27T11:09:42.643Z,101703.20
2023-03-27T11:12:16.951Z,101699.40
2023-03-27T11:15:02.395Z,101699.40
2023-03-27T11:17:49.224Z,101703.00
2023-03-27T11:20:44.256Z,101703.00
2023-03-27T11:23:41.136Z,101706.20
2023-03-27T11:26:34.028Z,101707.60
2023-03-27T11:29:32.718Z,101708.00
2023-03-27T11:32:23.122Z,101710.00
2023-03-27T11:35:10.437Z,101706.60
2023-03-27T11:38:03.920Z,101698.60
2023-03-27T11:40:51.551Z,101700.40
2023-03-27T11:43:22.054Z,101694.20
2023-03-27T11:46:06.867Z,101699.40
2023-03-27T11:49:06.331Z,101698.00
2023-03-27T11:52:01.834Z,101694.80
2023-03-27T11:55:06.821Z,101698.00
2023-03-27T11:57:52.034Z,101703.00
2023-03-27T12:00:42.669Z,101694.80
2023-03-27T12:03:40.267Z,101705.40
2023-03-27T12:06:26.688Z,101705.40
2023-03-27T12:09:43.769Z,101705.60
2023-03-27T12:13:18.204Z,101707.80
2023-03-27T12:16:17.198Z,101709.40
2023-03-27T12:19:03.790Z,101715.40
2023-03-27T12:22:14.252Z,101714.80
2023-03-27T12:25:16.966Z,101716.00
2023-03-27T12:29:24.684Z,101718.60
2023-03-27T12:32:19.573Z,101717.20
2023-03-27T12:35:12.380Z,101724.60
2023-03-27T12:38:03.210Z,101726.60
2023-03-27T12:40:40.147Z,101716.80
2023-03-27T12:43:33.840Z,101720.60
2023-03-27T12:46:33.339Z,101719.40
2023-03-27T12:49:07.868Z,101719.40
2023-03-27T12:51:43.852Z,101717.20
2023-03-27T12:54:26.336Z,101715.20
2023-03-27T12:57:08.152Z,101717.40
2023-03-27T12:59:54.257Z,101714.40
2023-03-27T13:03:06.562Z,101713.40
2023-03-27T13:06:12.692Z,101713.00
2023-03-27T13:09:17.726Z,101706.60
2023-03-27T13:11:58.222Z,101701.40
2023-03-27T13:14:42.258Z,101709.00
2023-03-27T13:17:40.342Z,101704.40
2023-03-27T13:20:27.291Z,101709.00
2023-03-27T13:23:30.353Z,101708.00
2023-03-27T13:26:33.382Z,101704.20
2023-03-27T13:29:02.911Z,101699.60
2023-03-27T13:31:47.635Z,101701.00
2023-03-27T13:34:40.740Z,101705.60
2023-03-27T13:37:11.881Z,101704.80
2023-03-27T13:40:02.293Z,101703.00
2023-03-27T13:42:43.112Z,101703.80
2023-03-27T13:45:25.625Z,101702.80
2023-03-27T13:48:31.505Z,101699.20
2023-03-27T13:51:46.769Z,101693.80
2023-03-27T13:54:39.980Z,101702.20
2023-03-27T13:57:29.794Z,101698.20
2023-03-27T14:00:14.994Z,101696.40
2023-03-27T14:03:14.766Z,101701.80
2023-03-27T14:06:35.709Z,101705.60
2023-03-27T14:09:08.057Z,101698.80
2023-03-27T14:12:24.991Z,101697.00
2023-03-27T14:15:29.306Z,101699.40
2023-03-27T14:18:44.088Z,101696.20
2023-03-27T14:21:27.547Z,101695.40
2023-03-27T14:24:17.864Z,101704.60
2023-03-27T14:26:49.525Z,101701.60
2023-03-27T14:29:21.145Z,101702.00
2023-03-27T14:31:51.343Z,101704.40
2023-03-27T14:34:40.188Z,101708.80
2023-03-27T14:37:36.377Z,101701.80
2023-03-27T14:40:29.711Z,101707.20
2023-03-27T14:43:01.694Z,101706.00
2023-03-27T14:45:36.019Z,101700.40
2023-03-27T14:48:17.695Z,101697.00
2023-03-27T14:50:53.215Z,101697.80
2023-03-27T14:53:27.633Z,101693.20
2023-03-27T14:56:37.973Z,101687.40
2023-03-27T14:59:20.677Z,101687.20
2023-03-27T15:01:57.945Z,101684.40
2023-03-27T15:04:30.048Z,101686.20
2023-03-27T15:07:19.670Z,101685.20
2023-03-27T15:10:06.098Z,101683.40
2023-03-27T15:12:57.284Z,101679.40
2023-03-27T15:15:38.579Z,101684.80
2023-03-27T15:18:28.338Z,101689.40
2023-03-27T15:21:04.125Z,101686.80
2023-03-27T15:23:46.939Z,101687.40
2023-03-27T15:26:26.991Z,101685.40
2023-03-27T15:29:08.138Z,101690.80
2023-03-27T15:31:37.453Z,101692.40
2023-03-27T15:34:23.282Z,101686.80
2023-03-27T15:36:58.190Z,101689.40
2023-03-27T15:39:26.641Z,101688.20
2023-03-27T15:42:06.490Z,101685.20
2023-03-27T15:44:37.571Z,101681.20
2023-03-27T15:47:25.634Z,101677.20
2023-03-27T15:50:18.873Z,101678.00
2023-03-27T15:52:52.844Z,101674.60
2023-03-27T15:56:00.892Z,101675.60
2023-03-27T15:58:43.910Z,101671.20
2023-03-27T16:01:20.250Z,101669.60
2023-03-27T16:03:51.343Z,101666.00
2023-03-27T16:06:33.855Z,101666.80
2023-03-27T16:09:02.297Z,101668.20
2023-03-27T16:11:50.193Z,101662.20
2023-03-27T16:14:48.829Z,101659.80
2023-03-27T16:17:29.039Z,101657.60
2023-03-27T16:20:25.971Z,101655.80
2023-03-27T16:22:53.816Z,101658.00
2023-03-27T16:25:21.598Z,101656.00
2023-03-27T16:27:56.072Z,101653.40
2023-03-27T16:30:36.205Z,101652.80
2023-03-27T16:33:15.498Z,101651.80
2023-03-27T16:35:45.938Z,101646.80
2023-03-27T16:38:14.032Z,101644.00
2023-03-27T16:40:43.450Z,101651.00
2023-03-27T16:43:11.225Z,101644.00
2023-03-27T16:45:39.193Z,101650.20
2023-03-27T16:48:08.319Z,101649.20
2023-03-27T16:50:36.572Z,101645.60
2023-03-27T16:53:04.423Z,101644.80
2023-03-27T16:55:32.192Z,101641.40
2023-03-27T16:58:00.596Z,101642.20
2023-03-27T17:00:28.464Z,101641.20
2023-03-27T17:02:56.427Z,101639.60
2023-03-27T17:05:24.773Z,101636.20
2023-03-27T17:07:52.618Z,101635.60
2023-03-27T17:10:21.181Z,101637.00
2023-03-27T17:12:48.973Z,101634.40
2023-03-27T17:15:16.897Z,101633.20
2023-03-27T17:17:45.915Z,101627.20
2023-03-27T17:20:14.350Z,101632.60
2023-03-27T17:22:42.211Z,101636.20
2023-03-27T17:25:10.534Z,101639.20
2023-03-27T17:27:39.009Z,101636.20
2023-03-27T17:30:07.821Z,101641.00
2023-03-27T17:32:35.753Z,101642.20
2023-03-27T17:35:04.503Z,101648.80
2023-03-27T17:37:35.006Z,101648.20
2023-03-27T17:40:07.258Z,101644.60
2023-03-27T17:42:36.717Z,101647.60
2023-03-27T17:45:06.450Z,101652.20
2023-03-27T17:47:34.501Z,101650.00
2023-03-27T17:50:02.357Z,101648.40
2023-03-27T17:52:31.839Z,101652.00
2023-03-27T17:55:00.064Z,101654.40
2023-03-27T17:57:28.130Z,101651.80
2023-03-27T17:59:56.157Z,101650.40
2023-03-27T18:02:23.948Z,101648.00
2023-03-27T18:04:54.865Z,101648.40
2023-03-27T18:07:23.748Z,101650.80
2023-03-27T18:09:52.491Z,101655.40
2023-03-27T18:12:21.116Z,101650.00
2023-03-27T18:14:48.905Z,101659.60
2023-03-27T18:17:20.854Z,101655.40
2023-03-27T18:19:48.721Z,101653.80
2023-03-27T18:22:16.687Z,101658.60
2023-03-27T18:24:44.719Z,101670.20
2023-03-27T18:27:12.713Z,101659.60
2023-03-27T18:29:40.494Z,101665.40
2023-03-27T18:32:08.539Z,101669.00
2023-03-27T18:34:36.377Z,101670.20
2023-03-27T18:37:04.247Z,101668.00
2023-03-27T18:39:36.403Z,101667.00
2023-03-27T18:42:05.159Z,101665.40
2023-03-27T18:44:33.067Z,101667.40
2023-03-27T18:47:00.919Z,101665.20
2023-03-27T18:49:28.684Z,101659.40
2023-03-27T18:51:56.654Z,101662.40
2023-03-27T18:54:24.781Z,101658.00
2023-03-27T18:56:52.632Z,101663.20
2023-03-27T18:59:20.815Z,101664.20
2023-03-27T19:01:48.981Z,101662.60
2023-03-27T19:04:17.317Z,101666.00
2023-03-27T19:06:46.572Z,101665.40
2023-03-27T19:09:15.603Z,101657.60
2023-03-27T19:11:43.983Z,101663.20
2023-03-27T19:14:17.829Z,101667.00
2023-03-27T19:17:06.069Z,101664.60
2023-03-27T19:19:39.992Z,101665.80
2023-03-27T19:22:43.100Z,101667.20
2023-03-27T19:25:27.976Z,101661.20
2023-03-27T19:27:56.415Z,101667.60
2023-03-27T19:30:25.103Z,101667.60
2023-03-27T19:32:58.021Z,101667.80
2023-03-27T19:35:26.607Z,101663.40
2023-03-27T19:37:54.635Z,101666.40
2023-03-27T19:40:23.151Z,101665.20
2023-03-27T19:42:51.368Z,101672.80
2023-03-27T19:45:19.307Z,101679.20
2023-03-27T19:47:48.393Z,101679.60
2023-03-27T19:50:17.088Z,101682.80
2023-03-27T19:53:07.479Z,101678.60
2023-03-27T19:55:37.520Z,101679.80
2023-03-27T19:58:05.996Z,101679.20
2023-03-27T20:00:38.369Z,101678.80
2023-03-27T20:03:10.353Z,101675.60
2023-03-27T20:05:47.043Z,101674.40
2023-03-27T20:08:16.636Z,101677.80
2023-03-27T20:10:47.673Z,101677.60
2023-03-27T20:13:17.973Z,101677.20
2023-03-27T20:15:52.541Z,101677.40
2023-03-27T20:18:22.226Z,101672.80
2023-03-27T20:20:50.412Z,101675.20
2023-03-27T20:23:18.472Z,101677.60
2023-03-27T20:25:51.663Z,101681.60
2023-03-27T20:28:19.669Z,101679.40
2023-03-27T20:30:47.528Z,101675.00
2023-03-27T20:33:15.568Z,101670.80
2023-03-27T20:35:43.527Z,101676.20
2023-03-27T20:38:12.223Z,101676.00
2023-03-27T20:40:53.849Z,101676.60
2023-03-27T20:43:30.901Z,101678.00
2023-03-27T20:45:59.639Z,101679.40
2023-03-27T20:48:39.910Z,101682.40
2023-03-27T20:51:14.807Z,101684.00
2023-03-27T20:53:45.475Z,101685.40
2023-03-27T20:56:14.313Z,101696.20
2023-03-27T20:58:42.568Z,101701.20
2023-03-27T21:01:11.151Z,101700.20
2023-03-27T21:03:46.054Z,101704.20
2023-03-27T21:06:18.781Z,101703.60
2023-03-27T21:08:48.012Z,101696.60
2023-03-27T21:11:15.961Z,101691.40
2023-03-27T21:13:43.788Z,101685.40
2023-03-27T21:16:11.791Z,101687.80
2023-03-27T21:18:39.554Z,101686.40
2023-03-27T21:21:08.014Z,101691.00
2023-03-27T21:23:39.222Z,101687.40
2023-03-27T21:26:07.343Z,101691.60
2023-03-27T21:28:35.417Z,101689.40
2023-03-27T21:31:09.275Z,101687.80
2023-03-27T21:33:38.280Z,101685.60
2023-03-27T21:36:07.141Z,101680.80
2023-03-27T21:38:34.971Z,101684.80
2023-03-27T21:41:03.825Z,101685.00
2023-03-27T21:43:32.355Z,101685.60
2023-03-27T21:46:03.652Z,101682.80
2023-03-27T21:48:31.989Z,101684.00
2023-03-27T21:51:04.260Z,101683.80
2023-03-27T21:53:33.520Z,101680.60
2023-03-27T21:56:01.543Z,101683.60
2023-03-27T21:58:30.010Z,101675.40
2023-03-27T22:00:59.180Z,101667.80
2023-03-27T22:03:29.357Z,101671.40
2023-03-27T22:06:11.870Z,101673.60
2023-03-27T22:08:43.255Z,101669.40
2023-03-27T22:11:12.488Z,101675.40
2023-03-27T22:13:43.368Z,101672.40
2023-03-27T22:16:14.581Z,101662.20
2023-03-27T22:18:44.034Z,101668.40
2023-03-27T22:21:22.003Z,101662.20
2023-03-27T22:23:51.544Z,101656.20
2023-03-27T22:26:30.873Z,101656.60
2023-03-27T22:28:59.270Z,101654.40
2023-03-27T22:31:28.980Z,101654.00
2023-03-27T22:33:56.944Z,101652.20
2023-03-27T22:36:24.852Z,101649.80
2023-03-27T22:38:53.124Z,101652.00
2023-03-27T22:41:21.216Z,101649.20
2023-03-27T22:43:49.894Z,101641.60
2023-03-27T22:46:22.030Z,101637.60
2023-03-27T22:48:59.654Z,101648.80
2023-03-27T22:51:30.407Z,101645.60
2023-03-27T22:53:58.598Z,101646.40
2023-03-27T22:56:26.537Z,101647.20
2023-03-27T22:58:54.415Z,101641.20
2023-03-27T23:01:22.255Z,101644.80
2023-03-27T23:03:50.198Z,101640.20
2023-03-27T23:06:22.098Z,101640.20
2023-03-27T23:08:51.216Z,101649.00
2023-03-27T23:11:20.288Z,101649.80
2023-03-27T23:13:48.914Z,101640.40
2023-03-27T23:16:16.752Z,101642.20
2023-03-27T23:18:44.543Z,101640.20
2023-03-27T23:21:16.593Z,101639.40
2023-03-27T23:23:45.256Z,101632.60
2023-03-27T23:26:13.328Z,101632.20
2023-03-27T23:28:42.570Z,101621.60
2023-03-27T23:31:15.145Z,101624.40
2023-03-27T23:33:52.216Z,101625.00
2023-03-27T23:36:26.403Z,101618.60
2023-03-27T23:38:54.450Z,101622.40
2023-03-27T23:41:22.733Z,101622.60
2023-03-27T23:43:50.978Z,101622.20
2023-03-27T23:46:19.110Z,101621.00
2023-03-27T23:48:47.425Z,101622.20
2023-03-27T23:51:16.814Z,101620.00
2023-03-27T23:53:45.457Z,101619.80
2023-03-27T23:56:13.311Z,101616.80
2023-03-27T23:58:41.188Z,101614.00
